04:47
Airports
History
Links
Donate
Help keep this website running!
PayPal
Bitcoin
Information on this page is community maintained and may be outdated or inaccurate and is intended for reference only or PC simulator navigating!
Always use approved charts for navigating.
VA76
Baskerville
Baskerville (VA76)
McKenney, Virginia, United States (23872)
4
Lat/Lng:36° 59' 15.54" N / 77° 46' 17.98" W
36.987649 / -77.771662
Elevation:250'ft 76mMSL
ID / ICAO:VA76
Runways:1
Longest:(09-27) 370.1m 1,214ft Grass
Distance To
Airport ID:
Nearby VORs <50NM
Nearby NDBs
Nearby WeatherUpdated 04-25-17 04:35 GMT
Nearby weather at KPTB, Dinwiddie County located 19.9 nautical miles from VA76
Altimeter: 29.84
Visibility: 3.0 statute miles
Wind: 10 knots (030°)
Temp: 13°c 55°f
Humidity: 100.0%

METAR: KPTB 250435Z AUTO 03010G17KT 3SM -RA OVC004 13/13 A2984 RMK AO2 T01280125

(Powered by phpweather)
Runway 09 / 27
Dimensions:370.1 x 18.3m 1214' x 60'ft
Surface:Grass
Runway 09 [A]Runway 27 [B]
Heading:081°TH 261°TH
Lat:
Lng:
36° 59' 14.71"N
77° 46' 25.33"W
36° 59' 16.36"N
77° 46' 10.64"W
Google Map
Nearby Airports
(C) Allen C Perkinson Blackstone A 11.8 NM
KBKT WNW 300°
(U) Lawrenceville/brunswick Muni 14.9 NM
KLVL S 184°
(U) Dinwiddie County 19.9 NM
KPTB (WX) NE 47°
(U) Crewe Muni 22.4 NM
W81 NW 306°
(U) Lunenburg County 22.9 NM
W31 W 265°
(R) Mazza 23.4 NM
VA73 NE 40°
(U) Mecklenburg-brunswick Rgnl 25.9 NM
KAVC SW 217°
VFR Chart
Flight Planning at SkyVector.com